This is the latest recevied weather packets stored in our database for station/object DL6DJ-15. If no packets are shown the sender has not sent any weather packets the latest 10 day(s).
| Time | Temp. | Humidity | Pressure | Rain* | Wind** | Luminosity | Snow |
|---|---|---|---|---|---|---|---|
| 1778047358 | 17.22° C | 57% | 1008.3 hPa | - | - | - | - |
| 1778047058 | 16.11° C | 62% | 1008.4 hPa | - | - | - | - |
| 1778046757 | 15.56° C | 66% | 1008.4 hPa | - | - | - | - |
| 1778046457 | 14.44° C | 68% | 1008.5 hPa | - | - | - | - |
| 1778046156 | 13.89° C | 69% | 1008.5 hPa | - | - | - | - |
| 1778045856 | 13.89° C | 68% | 1008.5 hPa | - | - | - | - |
| 1778045555 | 13.89° C | 68% | 1008.4 hPa | - | - | - | - |
| 1778045255 | 13.89° C | 68% | 1008.4 hPa | - | - | - | - |
| 1778044955 | 14.44° C | 67% | 1008.4 hPa | - | - | - | - |
| 1778044654 | 14.44° C | 66% | 1008.4 hPa | - | - | - | - |
| 1778044354 | 15° C | 65% | 1008.4 hPa | - | - | - | - |
| 1778044054 | 14.44° C | 69% | 1008.4 hPa | - | - | - | - |
| 1778043753 | 11.67° C | 78% | 1008.3 hPa | - | - | - | - |
| 1778043453 | 11.11° C | 78% | 1008.3 hPa | - | - | - | - |
| 1778043152 | 10.56° C | 79% | 1008.4 hPa | - | - | - | - |
| 1778042852 | 10° C | 80% | 1008.2 hPa | - | - | - | - |
| 1778042552 | 9.44° C | 81% | 1008.4 hPa | - | - | - | - |
| 1778042251 | 9.44° C | 80% | 1008.5 hPa | - | - | - | - |
| 1778041951 | 9.44° C | 80% | 1008.6 hPa | - | - | - | - |
| 1778041651 | 8.89° C | 80% | 1008.7 hPa | - | - | - | - |
| 1778041350 | 8.89° C | 80% | 1008.7 hPa | - | - | - | - |
| 1778041050 | 8.89° C | 80% | 1008.8 hPa | - | - | - | - |
| 1778040749 | 8.89° C | 79% | 1008.7 hPa | - | - | - | - |
| 1778040450 | 8.89° C | 80% | 1008.7 hPa | - | - | - | - |
| 1778040148 | 8.89° C | 79% | 1008.7 hPa | - | - | - | - |
* Rain since midnight (hover to see other rain measurements)
** Current wind speed in m/s (hover to see current wind gust speed)